sensor_id;sensor_type;location;lat;lon;timestamp;P1;durP1;ratioP1;P2;durP2;ratioP2
73642;SDS011;61938;48.652;9.292;2022-07-23T00:17:56;11.13;;;7.45;;
73642;SDS011;61938;48.652;9.292;2022-07-23T00:30:11;10.45;;;7.15;;
73642;SDS011;61938;48.652;9.292;2022-07-23T00:32:53;10.10;;;6.72;;
73642;SDS011;61938;48.652;9.292;2022-07-23T00:47:37;15.65;;;7.57;;
73642;SDS011;61938;48.652;9.292;2022-07-23T01:05:22;10.32;;;5.53;;
73642;SDS011;61938;48.652;9.292;2022-07-23T01:07:49;7.30;;;5.57;;
73642;SDS011;61938;48.652;9.292;2022-07-23T01:10:15;9.70;;;5.35;;
73642;SDS011;61938;48.652;9.292;2022-07-23T01:13:00;7.35;;;5.50;;
73642;SDS011;61938;48.652;9.292;2022-07-23T01:15:33;8.15;;;5.80;;
73642;SDS011;61938;48.652;9.292;2022-07-23T01:18:00;6.57;;;5.50;;
73642;SDS011;61938;48.652;9.292;2022-07-23T01:20:27;8.85;;;5.72;;
73642;SDS011;61938;48.652;9.292;2022-07-23T01:22:55;10.05;;;5.65;;
73642;SDS011;61938;48.652;9.292;2022-07-23T01:30:54;8.10;;;5.20;;
73642;SDS011;61938;48.652;9.292;2022-07-23T01:33:22;7.53;;;5.30;;
73642;SDS011;61938;48.652;9.292;2022-07-23T01:35:48;7.50;;;5.13;;
73642;SDS011;61938;48.652;9.292;2022-07-23T01:41:00;7.30;;;5.38;;
73642;SDS011;61938;48.652;9.292;2022-07-23T01:43:28;12.15;;;6.22;;
73642;SDS011;61938;48.652;9.292;2022-07-23T01:45:54;9.52;;;5.95;;
73642;SDS011;61938;48.652;9.292;2022-07-23T01:48:19;11.43;;;5.40;;
73642;SDS011;61938;48.652;9.292;2022-07-23T01:53:52;13.48;;;5.82;;
73642;SDS011;61938;48.652;9.292;2022-07-23T01:59:04;10.02;;;5.82;;
73642;SDS011;61938;48.652;9.292;2022-07-23T02:10:07;7.50;;;5.72;;
73642;SDS011;61938;48.652;9.292;2022-07-23T02:18:05;8.48;;;5.45;;
73642;SDS011;61938;48.652;9.292;2022-07-23T02:23:56;10.57;;;5.95;;
73642;SDS011;61938;48.652;9.292;2022-07-23T02:29:28;9.45;;;5.50;;
73642;SDS011;61938;48.652;9.292;2022-07-23T02:38:02;10.05;;;6.25;;
73642;SDS011;61938;48.652;9.292;2022-07-23T02:43:32;10.80;;;5.75;;
73642;SDS011;61938;48.652;9.292;2022-07-23T02:51:31;9.98;;;6.22;;
73642;SDS011;61938;48.652;9.292;2022-07-23T02:53:58;10.68;;;6.43;;
73642;SDS011;61938;48.652;9.292;2022-07-23T03:01:54;11.48;;;6.35;;
73642;SDS011;61938;48.652;9.292;2022-07-23T03:04:20;7.90;;;5.90;;
73642;SDS011;61938;48.652;9.292;2022-07-23T03:06:48;9.52;;;6.38;;
73642;SDS011;61938;48.652;9.292;2022-07-23T03:11:59;8.13;;;5.57;;
73642;SDS011;61938;48.652;9.292;2022-07-23T03:16:53;7.60;;;5.72;;
73642;SDS011;61938;48.652;9.292;2022-07-23T03:19:20;10.52;;;6.40;;
73642;SDS011;61938;48.652;9.292;2022-07-23T03:21:48;9.77;;;6.20;;
73642;SDS011;61938;48.652;9.292;2022-07-23T03:53:45;13.02;;;7.32;;
73642;SDS011;61938;48.652;9.292;2022-07-23T03:58:57;12.05;;;6.60;;
73642;SDS011;61938;48.652;9.292;2022-07-23T04:01:23;12.95;;;5.70;;
73642;SDS011;61938;48.652;9.292;2022-07-23T04:03:49;11.93;;;6.32;;
73642;SDS011;61938;48.652;9.292;2022-07-23T04:06:14;9.63;;;6.38;;
73642;SDS011;61938;48.652;9.292;2022-07-23T04:08:41;9.55;;;5.88;;
73642;SDS011;61938;48.652;9.292;2022-07-23T04:16:37;10.13;;;7.18;;
73642;SDS011;61938;48.652;9.292;2022-07-23T04:35:15;10.07;;;6.72;;
73642;SDS011;61938;48.652;9.292;2022-07-23T04:37:41;10.23;;;6.95;;
73642;SDS011;61938;48.652;9.292;2022-07-23T04:40:08;12.30;;;6.93;;
73642;SDS011;61938;48.652;9.292;2022-07-23T04:45:23;10.05;;;7.47;;
73642;SDS011;61938;48.652;9.292;2022-07-23T04:47:52;12.25;;;7.10;;
73642;SDS011;61938;48.652;9.292;2022-07-23T04:56:29;10.50;;;7.75;;
73642;SDS011;61938;48.652;9.292;2022-07-23T04:58:54;10.07;;;7.00;;
73642;SDS011;61938;48.652;9.292;2022-07-23T05:06:53;11.15;;;7.43;;
73642;SDS011;61938;48.652;9.292;2022-07-23T05:09:19;12.25;;;7.90;;
73642;SDS011;61938;48.652;9.292;2022-07-23T05:11:44;12.30;;;8.00;;
73642;SDS011;61938;48.652;9.292;2022-07-23T05:14:12;11.85;;;7.78;;
73642;SDS011;61938;48.652;9.292;2022-07-23T05:16:38;11.00;;;7.53;;
73642;SDS011;61938;48.652;9.292;2022-07-23T05:33:18;10.82;;;7.55;;
73642;SDS011;61938;48.652;9.292;2022-07-23T05:38:29;10.95;;;6.75;;
73642;SDS011;61938;48.652;9.292;2022-07-23T05:40:57;14.95;;;8.07;;
73642;SDS011;61938;48.652;9.292;2022-07-23T05:49:12;13.30;;;8.90;;
73642;SDS011;61938;48.652;9.292;2022-07-23T05:57:11;14.05;;;9.02;;
73642;SDS011;61938;48.652;9.292;2022-07-23T05:59:38;14.63;;;9.25;;
73642;SDS011;61938;48.652;9.292;2022-07-23T06:10:39;11.75;;;8.23;;
73642;SDS011;61938;48.652;9.292;2022-07-23T06:13:04;13.27;;;8.68;;
73642;SDS011;61938;48.652;9.292;2022-07-23T06:18:16;13.30;;;8.35;;
73642;SDS011;61938;48.652;9.292;2022-07-23T06:30:30;10.15;;;7.80;;
73642;SDS011;61938;48.652;9.292;2022-07-23T06:36:00;11.15;;;8.63;;
73642;SDS011;61938;48.652;9.292;2022-07-23T06:38:26;11.23;;;8.55;;
73642;SDS011;61938;48.652;9.292;2022-07-23T06:47:02;14.80;;;9.02;;
73642;SDS011;61938;48.652;9.292;2022-07-23T06:55:18;14.05;;;8.73;;
73642;SDS011;61938;48.652;9.292;2022-07-23T06:57:44;13.02;;;8.88;;
73642;SDS011;61938;48.652;9.292;2022-07-23T07:17:55;12.85;;;8.30;;
73642;SDS011;61938;48.652;9.292;2022-07-23T07:20:23;14.23;;;8.43;;
73642;SDS011;61938;48.652;9.292;2022-07-23T07:26:12;12.20;;;7.75;;
73642;SDS011;61938;48.652;9.292;2022-07-23T07:37:49;10.45;;;7.10;;
73642;SDS011;61938;48.652;9.292;2022-07-23T07:40:16;10.02;;;7.07;;
73642;SDS011;61938;48.652;9.292;2022-07-23T07:48:52;10.52;;;6.75;;
73642;SDS011;61938;48.652;9.292;2022-07-23T07:51:18;10.00;;;6.93;;
73642;SDS011;61938;48.652;9.292;2022-07-23T08:00:15;9.20;;;7.07;;
73642;SDS011;61938;48.652;9.292;2022-07-23T08:17:44;10.80;;;6.30;;
73642;SDS011;61938;48.652;9.292;2022-07-23T08:20:12;10.77;;;6.55;;
73642;SDS011;61938;48.652;9.292;2022-07-23T08:28:46;10.63;;;7.03;;
73642;SDS011;61938;48.652;9.292;2022-07-23T08:31:13;17.17;;;7.38;;
73642;SDS011;61938;48.652;9.292;2022-07-23T08:38:58;11.27;;;7.20;;
73642;SDS011;61938;48.652;9.292;2022-07-23T08:57:19;13.15;;;8.15;;
73642;SDS011;61938;48.652;9.292;2022-07-23T08:59:45;12.50;;;7.47;;
73642;SDS011;61938;48.652;9.292;2022-07-23T09:08:44;11.07;;;7.57;;
73642;SDS011;61938;48.652;9.292;2022-07-23T09:11:20;14.48;;;8.38;;
73642;SDS011;61938;48.652;9.292;2022-07-23T09:13:46;23.25;;;10.48;;
73642;SDS011;61938;48.652;9.292;2022-07-23T09:19:17;15.32;;;8.02;;
73642;SDS011;61938;48.652;9.292;2022-07-23T09:21:52;11.18;;;8.05;;
73642;SDS011;61938;48.652;9.292;2022-07-23T09:24:18;11.70;;;8.70;;
73642;SDS011;61938;48.652;9.292;2022-07-23T09:29:30;11.88;;;8.35;;
73642;SDS011;61938;48.652;9.292;2022-07-23T09:31:57;13.63;;;7.70;;
73642;SDS011;61938;48.652;9.292;2022-07-23T09:34:28;12.77;;;7.72;;
73642;SDS011;61938;48.652;9.292;2022-07-23T09:36:58;20.85;;;9.50;;
73642;SDS011;61938;48.652;9.292;2022-07-23T09:39:41;11.05;;;8.20;;
73642;SDS011;61938;48.652;9.292;2022-07-23T09:42:14;14.30;;;9.02;;
73642;SDS011;61938;48.652;9.292;2022-07-23T09:44:45;11.20;;;8.95;;
73642;SDS011;61938;48.652;9.292;2022-07-23T09:50:07;17.02;;;9.93;;
73642;SDS011;61938;48.652;9.292;2022-07-23T09:52:37;13.50;;;9.13;;
73642;SDS011;61938;48.652;9.292;2022-07-23T09:55:08;12.02;;;8.82;;
73642;SDS011;61938;48.652;9.292;2022-07-23T09:57:35;11.70;;;8.70;;
73642;SDS011;61938;48.652;9.292;2022-07-23T10:00:03;16.35;;;9.40;;
73642;SDS011;61938;48.652;9.292;2022-07-23T10:02:34;14.05;;;8.75;;
73642;SDS011;61938;48.652;9.292;2022-07-23T10:07:47;13.80;;;8.35;;
73642;SDS011;61938;48.652;9.292;2022-07-23T10:10:17;12.85;;;7.90;;
73642;SDS011;61938;48.652;9.292;2022-07-23T10:12:45;11.38;;;8.57;;
73642;SDS011;61938;48.652;9.292;2022-07-23T10:48:17;15.27;;;9.48;;
73642;SDS011;61938;48.652;9.292;2022-07-23T10:59:17;15.35;;;8.60;;
73642;SDS011;61938;48.652;9.292;2022-07-23T11:11:32;11.52;;;8.30;;
73642;SDS011;61938;48.652;9.292;2022-07-23T11:14:00;10.15;;;7.70;;
73642;SDS011;61938;48.652;9.292;2022-07-23T11:21:44;12.73;;;7.97;;
73642;SDS011;61938;48.652;9.292;2022-07-23T11:24:13;13.18;;;8.90;;
73642;SDS011;61938;48.652;9.292;2022-07-23T11:26:50;11.90;;;7.57;;
73642;SDS011;61938;48.652;9.292;2022-07-23T11:34:35;14.45;;;8.32;;
73642;SDS011;61938;48.652;9.292;2022-07-23T11:37:12;11.73;;;7.30;;
73642;SDS011;61938;48.652;9.292;2022-07-23T11:43:22;10.23;;;7.28;;
73642;SDS011;61938;48.652;9.292;2022-07-23T11:45:50;9.20;;;7.30;;
73642;SDS011;61938;48.652;9.292;2022-07-23T11:48:26;12.70;;;7.43;;
73642;SDS011;61938;48.652;9.292;2022-07-23T11:53:49;9.25;;;7.40;;
73642;SDS011;61938;48.652;9.292;2022-07-23T11:56:17;12.05;;;7.13;;
73642;SDS011;61938;48.652;9.292;2022-07-23T12:07:41;9.43;;;6.90;;
73642;SDS011;61938;48.652;9.292;2022-07-23T12:10:14;10.38;;;7.38;;
73642;SDS011;61938;48.652;9.292;2022-07-23T12:18:18;10.27;;;6.93;;
73642;SDS011;61938;48.652;9.292;2022-07-23T12:20:48;9.27;;;7.00;;
73642;SDS011;61938;48.652;9.292;2022-07-23T12:26:03;8.23;;;6.43;;
73642;SDS011;61938;48.652;9.292;2022-07-23T12:46:41;13.23;;;6.88;;
73642;SDS011;61938;48.652;9.292;2022-07-23T12:55:27;9.50;;;6.82;;
73642;SDS011;61938;48.652;9.292;2022-07-23T13:04:23;9.57;;;6.68;;
73642;SDS011;61938;48.652;9.292;2022-07-23T13:09:40;9.52;;;6.70;;
73642;SDS011;61938;48.652;9.292;2022-07-23T13:18:31;10.18;;;7.13;;
73642;SDS011;61938;48.652;9.292;2022-07-23T13:24:21;12.18;;;7.70;;
73642;SDS011;61938;48.652;9.292;2022-07-23T13:29:34;16.70;;;11.10;;
73642;SDS011;61938;48.652;9.292;2022-07-23T13:54:41;9.98;;;7.40;;
73642;SDS011;61938;48.652;9.292;2022-07-23T13:57:08;9.70;;;7.65;;
73642;SDS011;61938;48.652;9.292;2022-07-23T14:02:41;20.45;;;11.65;;
73642;SDS011;61938;48.652;9.292;2022-07-23T14:08:29;22.70;;;13.90;;
73642;SDS011;61938;48.652;9.292;2022-07-23T14:38:05;11.05;;;7.40;;
73642;SDS011;61938;48.652;9.292;2022-07-23T14:43:54;10.98;;;7.25;;
73642;SDS011;61938;48.652;9.292;2022-07-23T14:46:23;10.57;;;7.38;;
73642;SDS011;61938;48.652;9.292;2022-07-23T14:51:36;12.43;;;8.00;;
73642;SDS011;61938;48.652;9.292;2022-07-23T15:02:37;12.88;;;8.25;;
73642;SDS011;61938;48.652;9.292;2022-07-23T15:07:51;11.73;;;8.55;;
73642;SDS011;61938;48.652;9.292;2022-07-23T15:19:10;11.13;;;7.30;;
73642;SDS011;61938;48.652;9.292;2022-07-23T15:24:27;11.35;;;7.63;;
73642;SDS011;61938;48.652;9.292;2022-07-23T15:26:54;11.52;;;8.25;;
73642;SDS011;61938;48.652;9.292;2022-07-23T15:32:04;9.35;;;7.40;;
73642;SDS011;61938;48.652;9.292;2022-07-23T15:40:00;9.85;;;7.68;;
73642;SDS011;61938;48.652;9.292;2022-07-23T15:53:55;11.73;;;7.72;;
73642;SDS011;61938;48.652;9.292;2022-07-23T16:02:13;10.02;;;8.10;;
73642;SDS011;61938;48.652;9.292;2022-07-23T16:04:41;14.55;;;8.40;;
73642;SDS011;61938;48.652;9.292;2022-07-23T16:07:08;12.07;;;8.55;;
73642;SDS011;61938;48.652;9.292;2022-07-23T16:09:34;15.65;;;8.73;;
73642;SDS011;61938;48.652;9.292;2022-07-23T16:12:02;12.80;;;8.48;;
73642;SDS011;61938;48.652;9.292;2022-07-23T16:14:30;13.40;;;8.30;;
73642;SDS011;61938;48.652;9.292;2022-07-23T16:19:59;10.95;;;8.75;;
73642;SDS011;61938;48.652;9.292;2022-07-23T16:22:25;9.27;;;7.72;;
73642;SDS011;61938;48.652;9.292;2022-07-23T16:31:37;12.75;;;8.73;;
73642;SDS011;61938;48.652;9.292;2022-07-23T16:42:42;12.50;;;8.43;;
73642;SDS011;61938;48.652;9.292;2022-07-23T16:45:09;14.32;;;9.32;;
73642;SDS011;61938;48.652;9.292;2022-07-23T17:02:21;11.07;;;8.23;;
73642;SDS011;61938;48.652;9.292;2022-07-23T17:04:47;13.05;;;8.77;;
73642;SDS011;61938;48.652;9.292;2022-07-23T17:10:01;10.70;;;8.30;;
73642;SDS011;61938;48.652;9.292;2022-07-23T17:18:02;13.30;;;8.52;;
73642;SDS011;61938;48.652;9.292;2022-07-23T17:50:49;16.50;;;9.77;;
73642;SDS011;61938;48.652;9.292;2022-07-23T17:53:16;12.32;;;9.32;;
73642;SDS011;61938;48.652;9.292;2022-07-23T18:10:29;16.17;;;10.18;;
73642;SDS011;61938;48.652;9.292;2022-07-23T18:12:56;16.08;;;10.82;;
73642;SDS011;61938;48.652;9.292;2022-07-23T18:15:22;13.30;;;10.13;;
73642;SDS011;61938;48.652;9.292;2022-07-23T18:17:48;13.10;;;9.73;;
73642;SDS011;61938;48.652;9.292;2022-07-23T18:20:14;14.32;;;10.10;;
73642;SDS011;61938;48.652;9.292;2022-07-23T18:22:40;13.98;;;9.75;;
73642;SDS011;61938;48.652;9.292;2022-07-23T18:25:07;13.63;;;11.02;;
73642;SDS011;61938;48.652;9.292;2022-07-23T18:27:34;19.42;;;10.57;;
73642;SDS011;61938;48.652;9.292;2022-07-23T18:30:00;15.82;;;10.23;;
73642;SDS011;61938;48.652;9.292;2022-07-23T18:32:26;15.70;;;9.60;;
73642;SDS011;61938;48.652;9.292;2022-07-23T18:34:52;16.00;;;9.40;;
73642;SDS011;61938;48.652;9.292;2022-07-23T18:37:19;12.13;;;9.80;;
73642;SDS011;61938;48.652;9.292;2022-07-23T18:39:45;13.82;;;10.38;;
73642;SDS011;61938;48.652;9.292;2022-07-23T18:42:11;14.30;;;10.75;;
73642;SDS011;61938;48.652;9.292;2022-07-23T18:44:36;18.83;;;10.68;;
73642;SDS011;61938;48.652;9.292;2022-07-23T18:47:03;14.80;;;10.15;;
73642;SDS011;61938;48.652;9.292;2022-07-23T18:49:30;15.13;;;10.90;;
73642;SDS011;61938;48.652;9.292;2022-07-23T18:51:55;15.05;;;10.63;;
73642;SDS011;61938;48.652;9.292;2022-07-23T18:54:22;16.85;;;10.93;;
73642;SDS011;61938;48.652;9.292;2022-07-23T18:56:48;14.40;;;10.77;;
73642;SDS011;61938;48.652;9.292;2022-07-23T18:59:14;15.68;;;10.55;;
73642;SDS011;61938;48.652;9.292;2022-07-23T19:01:40;17.98;;;10.73;;
73642;SDS011;61938;48.652;9.292;2022-07-23T19:04:07;13.48;;;10.57;;
73642;SDS011;61938;48.652;9.292;2022-07-23T19:06:33;16.48;;;10.93;;
73642;SDS011;61938;48.652;9.292;2022-07-23T19:08:59;19.50;;;11.65;;
73642;SDS011;61938;48.652;9.292;2022-07-23T19:11:25;22.77;;;11.73;;
73642;SDS011;61938;48.652;9.292;2022-07-23T19:13:51;16.05;;;10.98;;
73642;SDS011;61938;48.652;9.292;2022-07-23T19:16:18;14.98;;;11.18;;
73642;SDS011;61938;48.652;9.292;2022-07-23T19:18:44;21.67;;;11.20;;
73642;SDS011;61938;48.652;9.292;2022-07-23T19:21:10;14.48;;;11.15;;
73642;SDS011;61938;48.652;9.292;2022-07-23T19:23:35;17.45;;;11.30;;
73642;SDS011;61938;48.652;9.292;2022-07-23T19:26:02;15.10;;;10.80;;
73642;SDS011;61938;48.652;9.292;2022-07-23T19:28:28;15.40;;;10.80;;
73642;SDS011;61938;48.652;9.292;2022-07-23T19:30:54;18.10;;;10.98;;
73642;SDS011;61938;48.652;9.292;2022-07-23T19:33:20;17.20;;;11.00;;
73642;SDS011;61938;48.652;9.292;2022-07-23T19:35:46;17.45;;;11.35;;
73642;SDS011;61938;48.652;9.292;2022-07-23T19:38:13;16.15;;;11.30;;
73642;SDS011;61938;48.652;9.292;2022-07-23T19:40:39;19.45;;;11.38;;
73642;SDS011;61938;48.652;9.292;2022-07-23T19:43:05;15.32;;;10.70;;
73642;SDS011;61938;48.652;9.292;2022-07-23T19:45:31;15.73;;;11.63;;
73642;SDS011;61938;48.652;9.292;2022-07-23T19:47:57;18.60;;;11.75;;
73642;SDS011;61938;48.652;9.292;2022-07-23T19:50:23;16.83;;;12.20;;
73642;SDS011;61938;48.652;9.292;2022-07-23T19:52:49;17.80;;;12.65;;
73642;SDS011;61938;48.652;9.292;2022-07-23T19:55:16;21.63;;;11.88;;
73642;SDS011;61938;48.652;9.292;2022-07-23T19:57:41;23.65;;;12.65;;
73642;SDS011;61938;48.652;9.292;2022-07-23T20:00:08;19.20;;;12.13;;
73642;SDS011;61938;48.652;9.292;2022-07-23T20:02:35;15.85;;;11.90;;
73642;SDS011;61938;48.652;9.292;2022-07-23T20:05:02;16.80;;;11.90;;
73642;SDS011;61938;48.652;9.292;2022-07-23T20:07:28;14.13;;;11.43;;
73642;SDS011;61938;48.652;9.292;2022-07-23T20:09:54;18.90;;;11.70;;
73642;SDS011;61938;48.652;9.292;2022-07-23T20:12:19;15.85;;;11.13;;
73642;SDS011;61938;48.652;9.292;2022-07-23T20:14:45;15.43;;;11.27;;
73642;SDS011;61938;48.652;9.292;2022-07-23T20:17:11;15.93;;;11.57;;
73642;SDS011;61938;48.652;9.292;2022-07-23T20:19:37;16.23;;;12.02;;
73642;SDS011;61938;48.652;9.292;2022-07-23T20:22:02;16.70;;;10.57;;
73642;SDS011;61938;48.652;9.292;2022-07-23T20:24:28;19.15;;;11.75;;
73642;SDS011;61938;48.652;9.292;2022-07-23T20:26:54;17.15;;;12.45;;
73642;SDS011;61938;48.652;9.292;2022-07-23T20:29:20;18.38;;;12.27;;
73642;SDS011;61938;48.652;9.292;2022-07-23T20:31:48;16.77;;;11.68;;
73642;SDS011;61938;48.652;9.292;2022-07-23T20:34:14;18.58;;;12.38;;
73642;SDS011;61938;48.652;9.292;2022-07-23T20:36:41;18.33;;;12.02;;
73642;SDS011;61938;48.652;9.292;2022-07-23T20:39:08;17.90;;;12.52;;
73642;SDS011;61938;48.652;9.292;2022-07-23T20:41:36;14.77;;;11.75;;
73642;SDS011;61938;48.652;9.292;2022-07-23T20:44:02;21.85;;;13.80;;
73642;SDS011;61938;48.652;9.292;2022-07-23T20:46:29;18.85;;;12.73;;
73642;SDS011;61938;48.652;9.292;2022-07-23T20:48:55;17.80;;;12.13;;
73642;SDS011;61938;48.652;9.292;2022-07-23T20:51:20;15.20;;;12.18;;
73642;SDS011;61938;48.652;9.292;2022-07-23T20:53:46;21.23;;;12.75;;
73642;SDS011;61938;48.652;9.292;2022-07-23T20:56:12;15.32;;;12.63;;
73642;SDS011;61938;48.652;9.292;2022-07-23T20:58:38;19.60;;;12.90;;
73642;SDS011;61938;48.652;9.292;2022-07-23T21:01:04;21.80;;;14.23;;
73642;SDS011;61938;48.652;9.292;2022-07-23T21:03:30;18.50;;;13.52;;
73642;SDS011;61938;48.652;9.292;2022-07-23T21:05:56;15.80;;;12.25;;
73642;SDS011;61938;48.652;9.292;2022-07-23T21:08:21;17.88;;;12.50;;
73642;SDS011;61938;48.652;9.292;2022-07-23T21:10:47;17.88;;;12.32;;
73642;SDS011;61938;48.652;9.292;2022-07-23T21:13:13;20.05;;;14.20;;
73642;SDS011;61938;48.652;9.292;2022-07-23T21:15:39;19.67;;;13.32;;
73642;SDS011;61938;48.652;9.292;2022-07-23T21:18:04;17.25;;;13.07;;
73642;SDS011;61938;48.652;9.292;2022-07-23T21:20:30;19.17;;;12.95;;
73642;SDS011;61938;48.652;9.292;2022-07-23T21:23:16;22.90;;;13.05;;
73642;SDS011;61938;48.652;9.292;2022-07-23T21:25:43;18.98;;;12.48;;
73642;SDS011;61938;48.652;9.292;2022-07-23T21:28:09;16.98;;;12.45;;
73642;SDS011;61938;48.652;9.292;2022-07-23T21:30:35;18.05;;;12.98;;
73642;SDS011;61938;48.652;9.292;2022-07-23T21:33:01;23.48;;;13.32;;
73642;SDS011;61938;48.652;9.292;2022-07-23T21:35:27;17.67;;;13.27;;
73642;SDS011;61938;48.652;9.292;2022-07-23T21:37:52;20.40;;;13.38;;
73642;SDS011;61938;48.652;9.292;2022-07-23T21:40:18;19.58;;;13.73;;
73642;SDS011;61938;48.652;9.292;2022-07-23T21:42:44;21.90;;;12.57;;
73642;SDS011;61938;48.652;9.292;2022-07-23T21:45:10;16.15;;;12.43;;
73642;SDS011;61938;48.652;9.292;2022-07-23T21:47:35;18.35;;;12.57;;
73642;SDS011;61938;48.652;9.292;2022-07-23T21:50:01;18.92;;;12.63;;
73642;SDS011;61938;48.652;9.292;2022-07-23T21:52:27;19.90;;;13.23;;
73642;SDS011;61938;48.652;9.292;2022-07-23T21:54:55;18.27;;;12.82;;
73642;SDS011;61938;48.652;9.292;2022-07-23T21:57:21;19.35;;;13.57;;
73642;SDS011;61938;48.652;9.292;2022-07-23T21:59:47;23.77;;;14.40;;
73642;SDS011;61938;48.652;9.292;2022-07-23T22:02:17;20.98;;;14.40;;
73642;SDS011;61938;48.652;9.292;2022-07-23T22:04:44;19.77;;;13.25;;
73642;SDS011;61938;48.652;9.292;2022-07-23T22:07:10;21.30;;;14.15;;
73642;SDS011;61938;48.652;9.292;2022-07-23T22:09:38;20.98;;;14.38;;
73642;SDS011;61938;48.652;9.292;2022-07-23T22:12:05;24.25;;;14.55;;
73642;SDS011;61938;48.652;9.292;2022-07-23T22:14:31;23.17;;;15.57;;
73642;SDS011;61938;48.652;9.292;2022-07-23T22:16:57;28.60;;;15.32;;
73642;SDS011;61938;48.652;9.292;2022-07-23T22:19:23;27.42;;;15.40;;
73642;SDS011;61938;48.652;9.292;2022-07-23T22:21:48;20.35;;;14.65;;
73642;SDS011;61938;48.652;9.292;2022-07-23T22:24:14;24.67;;;16.10;;
73642;SDS011;61938;48.652;9.292;2022-07-23T22:26:41;22.00;;;14.70;;
73642;SDS011;61938;48.652;9.292;2022-07-23T22:29:07;22.45;;;14.93;;
73642;SDS011;61938;48.652;9.292;2022-07-23T22:31:33;20.27;;;14.18;;
73642;SDS011;61938;48.652;9.292;2022-07-23T22:33:59;21.75;;;14.57;;
73642;SDS011;61938;48.652;9.292;2022-07-23T22:36:25;21.17;;;14.85;;
73642;SDS011;61938;48.652;9.292;2022-07-23T22:38:51;23.42;;;14.38;;
73642;SDS011;61938;48.652;9.292;2022-07-23T22:41:17;18.80;;;14.50;;
73642;SDS011;61938;48.652;9.292;2022-07-23T22:43:42;28.83;;;15.77;;
73642;SDS011;61938;48.652;9.292;2022-07-23T22:46:08;22.60;;;15.07;;
73642;SDS011;61938;48.652;9.292;2022-07-23T22:48:34;27.88;;;15.02;;
73642;SDS011;61938;48.652;9.292;2022-07-23T22:51:00;19.20;;;14.45;;
73642;SDS011;61938;48.652;9.292;2022-07-23T22:53:25;21.67;;;15.18;;
73642;SDS011;61938;48.652;9.292;2022-07-23T22:55:51;23.85;;;16.17;;
73642;SDS011;61938;48.652;9.292;2022-07-23T22:58:17;22.75;;;15.77;;
73642;SDS011;61938;48.652;9.292;2022-07-23T23:00:43;22.27;;;15.27;;
73642;SDS011;61938;48.652;9.292;2022-07-23T23:03:08;23.67;;;14.13;;
73642;SDS011;61938;48.652;9.292;2022-07-23T23:05:34;24.58;;;14.98;;
73642;SDS011;61938;48.652;9.292;2022-07-23T23:08:00;22.80;;;13.70;;
73642;SDS011;61938;48.652;9.292;2022-07-23T23:10:26;20.73;;;14.57;;
73642;SDS011;61938;48.652;9.292;2022-07-23T23:12:53;25.38;;;15.95;;
73642;SDS011;61938;48.652;9.292;2022-07-23T23:15:19;24.58;;;15.80;;
73642;SDS011;61938;48.652;9.292;2022-07-23T23:17:45;20.25;;;14.50;;
73642;SDS011;61938;48.652;9.292;2022-07-23T23:20:11;27.88;;;16.17;;
73642;SDS011;61938;48.652;9.292;2022-07-23T23:22:37;20.58;;;15.90;;
73642;SDS011;61938;48.652;9.292;2022-07-23T23:25:03;28.75;;;15.40;;
73642;SDS011;61938;48.652;9.292;2022-07-23T23:27:30;25.65;;;15.50;;
73642;SDS011;61938;48.652;9.292;2022-07-23T23:29:56;26.05;;;14.90;;
73642;SDS011;61938;48.652;9.292;2022-07-23T23:32:21;23.55;;;15.18;;
73642;SDS011;61938;48.652;9.292;2022-07-23T23:34:47;22.15;;;15.55;;
73642;SDS011;61938;48.652;9.292;2022-07-23T23:37:13;20.75;;;14.48;;
73642;SDS011;61938;48.652;9.292;2022-07-23T23:39:39;24.33;;;16.75;;
73642;SDS011;61938;48.652;9.292;2022-07-23T23:42:05;22.92;;;15.15;;
73642;SDS011;61938;48.652;9.292;2022-07-23T23:44:31;25.55;;;16.50;;
73642;SDS011;61938;48.652;9.292;2022-07-23T23:46:57;26.23;;;15.95;;
73642;SDS011;61938;48.652;9.292;2022-07-23T23:49:23;23.05;;;14.75;;
73642;SDS011;61938;48.652;9.292;2022-07-23T23:51:49;25.45;;;14.95;;
73642;SDS011;61938;48.652;9.292;2022-07-23T23:54:15;23.52;;;16.08;;
73642;SDS011;61938;48.652;9.292;2022-07-23T23:56:41;20.60;;;15.40;;
73642;SDS011;61938;48.652;9.292;2022-07-23T23:59:07;22.98;;;16.63;;
